createdAt,value
2022-09-07T00:00:20.975Z,71.62
2022-09-07T00:02:51.042Z,72.25
2022-09-07T00:05:21.326Z,71.98
2022-09-07T00:07:51.346Z,71.85
2022-09-07T00:10:22.249Z,72.18
2022-09-07T00:12:52.555Z,71.86
2022-09-07T00:15:23.061Z,71.80
2022-09-07T00:17:53.347Z,71.63
2022-09-07T00:20:23.677Z,71.82
2022-09-07T00:22:53.952Z,71.66
2022-09-07T00:25:24.356Z,71.74
2022-09-07T00:27:54.565Z,71.64
2022-09-07T00:30:24.827Z,71.49
2022-09-07T00:32:55.112Z,71.21
2022-09-07T00:35:25.381Z,71.47
2022-09-07T00:37:55.661Z,71.57
2022-09-07T00:40:26.607Z,71.85
2022-09-07T00:42:56.786Z,72.09
2022-09-07T00:45:27.068Z,73.00
2022-09-07T00:47:57.049Z,73.25
2022-09-07T00:50:27.704Z,73.56
2022-09-07T00:52:58.171Z,75.23
2022-09-07T00:55:28.842Z,76.47
2022-09-07T00:57:59.213Z,76.41
2022-09-07T01:00:29.419Z,77.53
2022-09-07T01:02:59.805Z,80.72
2022-09-07T01:05:30.569Z,80.09
2022-09-07T01:08:01.417Z,82.08
2022-09-07T01:10:31.766Z,83.91
2022-09-07T01:13:02.671Z,83.59
2022-09-07T01:15:33.329Z,83.59
2022-09-07T01:18:03.894Z,85.95
2022-09-07T01:20:34.162Z,86.73
2022-09-07T01:23:04.708Z,87.43
2022-09-07T01:25:34.858Z,89.21
2022-09-07T01:28:05.389Z,90.30
2022-09-07T01:30:35.855Z,89.43
2022-09-07T01:33:06.088Z,89.29
2022-09-07T01:35:36.601Z,88.78
2022-09-07T01:38:06.891Z,88.75
2022-09-07T01:40:37.573Z,87.52
2022-09-07T01:43:08.437Z,87.63
2022-09-07T01:45:38.706Z,87.07
2022-09-07T01:48:08.843Z,87.21
2022-09-07T01:50:38.905Z,86.63
2022-09-07T01:53:09.270Z,87.01
2022-09-07T01:55:39.940Z,87.01
2022-09-07T01:58:10.474Z,87.13
2022-09-07T02:00:41.071Z,88.52
2022-09-07T02:03:11.532Z,87.42
2022-09-07T02:05:42.102Z,87.38
2022-09-07T02:08:12.785Z,90.60
2022-09-07T02:10:43.159Z,89.86
2022-09-07T02:13:13.765Z,90.01
2022-09-07T02:15:43.982Z,89.86
2022-09-07T02:18:14.562Z,89.55
2022-09-07T02:20:45.315Z,89.05
2022-09-07T02:23:15.759Z,88.92
2022-09-07T02:25:46.392Z,88.50
2022-09-07T02:28:16.841Z,90.52
2022-09-07T02:30:47.735Z,89.87
2022-09-07T02:33:17.836Z,89.06
2022-09-07T02:35:48.331Z,89.36
2022-09-07T02:38:18.402Z,89.03
2022-09-07T02:40:49.127Z,89.87
2022-09-07T02:43:19.313Z,90.51
2022-09-07T02:45:49.544Z,89.57
2022-09-07T02:48:19.572Z,89.21
2022-09-07T02:50:49.672Z,88.52
2022-09-07T02:53:19.835Z,88.38
2022-09-07T02:55:50.113Z,88.29
2022-09-07T02:58:20.207Z,88.00
2022-09-07T03:00:50.383Z,88.03
2022-09-07T03:03:21.094Z,87.98
2022-09-07T03:05:51.555Z,87.77
2022-09-07T03:08:21.819Z,87.70
2022-09-07T03:10:51.843Z,88.32
2022-09-07T03:13:21.979Z,88.28
2022-09-07T03:15:55.737Z,88.06
2022-09-07T03:18:22.744Z,88.32
2022-09-07T03:20:52.962Z,88.50
2022-09-07T03:23:23.893Z,88.19
2022-09-07T03:25:54.508Z,88.59
2022-09-07T03:28:24.679Z,88.29
2022-09-07T03:30:55.080Z,88.71
2022-09-07T03:33:25.174Z,88.18
2022-09-07T03:35:55.266Z,88.45
2022-09-07T03:38:25.299Z,89.01
2022-09-07T03:40:56.022Z,89.00
2022-09-07T03:43:26.606Z,88.87
2022-09-07T03:45:57.562Z,89.07
2022-09-07T03:48:27.778Z,89.22
2022-09-07T03:50:58.436Z,89.46
2022-09-07T03:53:29.033Z,89.66
2022-09-07T03:55:59.331Z,90.27
2022-09-07T03:58:29.521Z,89.58
2022-09-07T04:01:00.225Z,89.78
2022-09-07T04:03:30.825Z,89.78
2022-09-07T04:06:01.563Z,89.41
2022-09-07T04:08:32.107Z,89.35
2022-09-07T04:11:02.347Z,89.39
2022-09-07T04:13:32.551Z,89.05
2022-09-07T04:16:02.918Z,88.65
2022-09-07T04:18:32.922Z,88.77
2022-09-07T04:21:03.456Z,88.50
2022-09-07T04:23:34.176Z,88.22
2022-09-07T04:26:04.854Z,88.08
2022-09-07T04:28:35.917Z,88.11
2022-09-07T04:31:06.115Z,87.77
2022-09-07T04:33:36.351Z,88.10
2022-09-07T04:36:06.598Z,87.82
2022-09-07T04:38:36.981Z,87.77
2022-09-07T04:41:06.976Z,87.91
2022-09-07T04:43:37.766Z,87.88
2022-09-07T04:46:08.462Z,87.95
2022-09-07T04:48:39.063Z,87.99
2022-09-07T04:51:09.218Z,88.01
2022-09-07T04:53:39.270Z,88.37
2022-09-07T04:56:11.843Z,88.12
2022-09-07T04:58:39.791Z,88.22
2022-09-07T05:01:10.191Z,88.24
2022-09-07T05:03:40.767Z,88.42
2022-09-07T05:06:10.865Z,88.39
2022-09-07T05:08:40.930Z,88.51
2022-09-07T05:11:11.014Z,88.69
2022-09-07T05:13:41.769Z,88.79
2022-09-07T05:16:12.327Z,88.85
2022-09-07T05:18:42.403Z,89.11
2022-09-07T05:21:12.782Z,89.03
2022-09-07T05:23:43.444Z,88.98
2022-09-07T05:26:13.526Z,88.95
2022-09-07T05:28:44.100Z,89.46
2022-09-07T05:36:15.803Z,89.80
2022-09-07T05:38:46.514Z,89.81
2022-09-07T05:41:17.038Z,89.67
2022-09-07T05:46:17.542Z,90.00
2022-09-07T05:48:48.149Z,90.08
2022-09-07T05:51:18.169Z,90.05
2022-09-07T05:53:48.972Z,90.28
2022-09-07T05:56:19.689Z,90.05
2022-09-07T05:58:50.313Z,90.39
2022-09-07T06:01:21.129Z,90.29
2022-09-07T06:03:51.600Z,90.62
2022-09-07T06:06:21.819Z,90.64
2022-09-07T06:08:51.955Z,90.67
2022-09-07T06:11:22.399Z,90.42
2022-09-07T06:13:52.382Z,90.95
2022-09-07T06:16:22.525Z,91.03
2022-09-07T06:18:52.986Z,91.57
2022-09-07T06:21:23.042Z,91.24
2022-09-07T06:23:53.569Z,91.12
2022-09-07T06:26:24.268Z,91.38
2022-09-07T06:28:57.861Z,90.86
2022-09-07T06:31:25.256Z,90.83
2022-09-07T06:33:55.131Z,91.24
2022-09-07T06:36:25.680Z,91.02
2022-09-07T06:38:56.604Z,91.62
2022-09-07T06:43:57.436Z,92.04
2022-09-07T06:48:57.870Z,91.57
2022-09-07T06:51:27.940Z,91.99
2022-09-07T06:56:28.691Z,91.95
2022-09-07T06:58:59.061Z,92.25
2022-09-07T07:01:29.710Z,92.38
2022-09-07T07:04:00.266Z,92.58
2022-09-07T07:06:30.918Z,92.67
2022-09-07T07:09:01.690Z,92.59
2022-09-07T07:11:32.166Z,92.39
2022-09-07T07:14:02.767Z,92.64
2022-09-07T07:16:33.564Z,92.89
2022-09-07T07:19:03.899Z,92.94
2022-09-07T07:21:55.235Z,92.97
2022-09-07T07:24:08.077Z,93.22
2022-09-07T07:26:35.445Z,93.50
2022-09-07T07:29:06.138Z,92.89
2022-09-07T07:31:36.874Z,93.20
2022-09-07T07:34:06.922Z,93.04
2022-09-07T07:36:37.745Z,92.49
2022-09-07T07:41:56.215Z,92.75
2022-09-07T07:44:09.245Z,93.09
2022-09-07T07:46:39.770Z,94.27
2022-09-07T07:49:10.288Z,93.97
2022-09-07T07:54:11.402Z,94.40
2022-09-07T07:56:42.004Z,94.64
2022-09-07T07:59:15.598Z,95.03
2022-09-07T08:01:42.434Z,94.36
2022-09-07T08:04:12.555Z,93.95
2022-09-07T08:06:42.864Z,94.58
2022-09-07T08:09:13.126Z,93.39
2022-09-07T08:11:43.420Z,94.07
2022-09-07T08:14:13.699Z,92.73
2022-09-07T08:16:44.345Z,94.03
2022-09-07T08:19:14.229Z,94.21
2022-09-07T08:21:44.534Z,94.11
2022-09-07T08:24:14.534Z,95.18
2022-09-07T08:26:44.857Z,94.42
2022-09-07T08:29:15.703Z,94.34
2022-09-07T08:31:46.710Z,94.57
2022-09-07T08:34:17.449Z,94.40
2022-09-07T08:36:48.355Z,94.56
2022-09-07T08:39:19.213Z,93.23
2022-09-07T08:41:49.845Z,94.14
2022-09-07T08:44:19.753Z,93.74
2022-09-07T08:46:50.357Z,93.83
2022-09-07T08:49:20.695Z,94.00
2022-09-07T08:51:51.444Z,94.08
2022-09-07T08:54:21.462Z,93.97
2022-09-07T08:57:21.001Z,94.06
2022-09-07T08:59:22.323Z,94.18
2022-09-07T09:04:24.379Z,93.36
2022-09-07T09:06:54.487Z,93.82
2022-09-07T09:09:25.133Z,93.76
2022-09-07T09:11:56.009Z,94.54
2022-09-07T09:14:26.437Z,93.43
2022-09-07T09:16:57.101Z,92.64
2022-09-07T09:19:27.660Z,93.23
2022-09-07T09:21:58.173Z,93.35
2022-09-07T09:24:28.840Z,93.34
2022-09-07T09:26:58.846Z,94.47
2022-09-07T09:29:29.696Z,92.54
2022-09-07T09:31:59.852Z,94.16
2022-09-07T09:34:34.660Z,93.10
2022-09-07T09:37:00.912Z,93.29
2022-09-07T09:39:31.279Z,93.40
2022-09-07T09:42:01.715Z,93.42
2022-09-07T09:44:32.274Z,93.34
2022-09-07T09:47:31.405Z,92.66
2022-09-07T09:49:32.741Z,92.55
2022-09-07T09:52:38.189Z,92.92
2022-09-07T09:54:33.246Z,92.56
2022-09-07T09:57:03.558Z,92.69
2022-09-07T09:59:59.918Z,92.76
2022-09-07T10:04:34.549Z,92.59
2022-09-07T10:07:05.168Z,92.87
2022-09-07T10:09:38.009Z,92.86
2022-09-07T10:12:06.491Z,92.57
2022-09-07T10:14:36.309Z,92.46
2022-09-07T10:17:06.650Z,92.20
2022-09-07T10:19:37.227Z,91.40
2022-09-07T10:22:07.150Z,91.18
2022-09-07T10:24:37.964Z,91.07
2022-09-07T10:27:08.458Z,91.53
2022-09-07T10:29:38.852Z,90.92
2022-09-07T10:32:09.085Z,91.06
2022-09-07T10:34:39.281Z,90.82
2022-09-07T10:37:09.750Z,89.31
2022-09-07T10:39:40.466Z,90.38
2022-09-07T10:42:11.077Z,90.84
2022-09-07T10:44:41.810Z,89.91
2022-09-07T10:47:12.121Z,90.68
2022-09-07T10:50:21.983Z,90.70
2022-09-07T10:52:13.098Z,90.64
2022-09-07T10:54:43.601Z,89.37
2022-09-07T10:57:14.075Z,89.64
2022-09-07T11:00:08.575Z,89.89
2022-09-07T11:02:15.330Z,90.10
2022-09-07T11:04:45.247Z,89.97
2022-09-07T11:07:15.778Z,89.09
2022-09-07T11:09:45.818Z,89.93
2022-09-07T11:12:16.429Z,88.87
2022-09-07T11:14:47.348Z,89.62
2022-09-07T11:17:17.332Z,88.89
2022-09-07T11:19:48.134Z,88.79
2022-09-07T11:22:18.393Z,87.56
2022-09-07T11:25:29.212Z,87.75
2022-09-07T11:27:18.940Z,87.79
2022-09-07T11:29:48.952Z,87.60
2022-09-07T11:32:19.350Z,87.25
2022-09-07T11:34:49.530Z,87.64
2022-09-07T11:37:19.967Z,88.13
2022-09-07T11:39:50.318Z,85.83
2022-09-07T11:42:44.004Z,86.13
2022-09-07T11:44:51.294Z,86.43
2022-09-07T11:47:21.855Z,87.77
2022-09-07T11:49:56.059Z,88.57
2022-09-07T11:52:22.524Z,87.13
2022-09-07T11:54:53.026Z,84.51
2022-09-07T11:57:23.670Z,85.51
2022-09-07T11:59:54.237Z,86.82
2022-09-07T12:02:36.832Z,86.73
2022-09-07T12:04:56.621Z,87.29
2022-09-07T12:07:25.638Z,87.95
2022-09-07T12:09:56.401Z,84.25
2022-09-07T12:12:26.980Z,85.10
2022-09-07T12:14:57.678Z,85.43
2022-09-07T12:17:27.851Z,84.03
2022-09-07T12:19:58.058Z,83.22
2022-09-07T12:22:28.636Z,83.82
2022-09-07T12:24:59.493Z,84.51
2022-09-07T12:27:30.205Z,82.99
2022-09-07T12:30:01.075Z,83.80
2022-09-07T12:32:55.454Z,84.52
2022-09-07T12:35:01.837Z,83.55
2022-09-07T12:37:32.121Z,83.73
2022-09-07T12:40:02.387Z,83.52
2022-09-07T12:42:32.944Z,81.64
2022-09-07T12:45:03.379Z,82.72
2022-09-07T12:47:33.684Z,83.42
2022-09-07T12:50:03.983Z,82.31
2022-09-07T12:52:34.130Z,82.67
2022-09-07T12:55:26.543Z,81.37
2022-09-07T12:57:34.915Z,82.62
2022-09-07T13:00:05.040Z,80.61
2022-09-07T13:02:35.704Z,81.94
2022-09-07T13:05:06.291Z,82.03
2022-09-07T13:07:36.353Z,81.85
2022-09-07T13:10:06.567Z,81.92
2022-09-07T13:12:54.226Z,81.32
2022-09-07T13:15:09.655Z,80.60
2022-09-07T13:17:37.595Z,80.32
2022-09-07T13:20:08.187Z,79.37
2022-09-07T13:22:38.601Z,80.42
2022-09-07T13:25:08.904Z,80.38
2022-09-07T13:27:39.099Z,80.68
2022-09-07T13:30:09.848Z,80.98
2022-09-07T13:33:08.453Z,81.23
2022-09-07T13:35:11.165Z,77.71
2022-09-07T13:37:41.521Z,77.12
2022-09-07T13:40:11.576Z,78.05
2022-09-07T13:42:41.783Z,79.41
2022-09-07T13:45:11.982Z,79.44
2022-09-07T13:47:42.245Z,79.54
2022-09-07T13:50:12.955Z,79.52
2022-09-07T13:52:43.351Z,76.59
2022-09-07T13:55:13.594Z,78.90
2022-09-07T13:57:43.805Z,77.67
2022-09-07T14:00:14.498Z,76.58
2022-09-07T14:02:45.054Z,77.37
2022-09-07T14:05:15.117Z,77.99
2022-09-07T14:07:45.640Z,77.84
2022-09-07T14:10:16.184Z,78.18
2022-09-07T14:12:46.382Z,77.64
2022-09-07T14:15:16.466Z,77.86
2022-09-07T14:17:46.603Z,78.13
2022-09-07T14:20:16.855Z,77.34
2022-09-07T14:22:51.997Z,77.66
2022-09-07T14:25:17.448Z,76.58
2022-09-07T14:27:47.849Z,76.55
2022-09-07T14:30:17.901Z,74.39
2022-09-07T14:32:48.417Z,76.06
2022-09-07T14:35:18.883Z,76.56
2022-09-07T14:37:49.069Z,76.72
2022-09-07T14:40:19.818Z,76.85
2022-09-07T14:42:50.418Z,76.46
2022-09-07T14:45:20.421Z,77.59
2022-09-07T14:47:52.118Z,77.56
2022-09-07T14:50:21.028Z,77.40
2022-09-07T14:55:21.550Z,75.76
2022-09-07T14:57:52.077Z,76.27
2022-09-07T15:00:22.582Z,76.41
2022-09-07T15:02:52.850Z,75.73
2022-09-07T15:05:23.579Z,76.05
2022-09-07T15:07:54.092Z,76.35
2022-09-07T15:10:24.774Z,76.24
2022-09-07T15:12:55.069Z,76.47
2022-09-07T15:15:26.757Z,76.30
2022-09-07T15:17:55.562Z,76.80
2022-09-07T15:20:25.662Z,76.70
2022-09-07T15:22:55.942Z,76.34
2022-09-07T15:25:26.135Z,76.76
2022-09-07T15:27:56.422Z,76.92
2022-09-07T15:30:27.323Z,77.06
2022-09-07T15:32:58.247Z,76.75
2022-09-07T15:35:28.237Z,76.70
2022-09-07T15:38:03.568Z,75.97
2022-09-07T15:40:29.079Z,76.69
2022-09-07T15:43:00.565Z,78.03
2022-09-07T15:45:30.404Z,76.35
2022-09-07T15:48:00.982Z,77.73
2022-09-07T15:50:31.842Z,77.95
2022-09-07T15:53:02.555Z,77.28
2022-09-07T15:55:32.721Z,77.55
2022-09-07T15:58:11.505Z,77.37
2022-09-07T16:00:34.106Z,77.52
2022-09-07T16:03:05.839Z,76.16
2022-09-07T16:05:35.415Z,75.14
2022-09-07T16:08:26.364Z,73.73
2022-09-07T16:10:35.853Z,72.93
2022-09-07T16:13:10.890Z,73.85
2022-09-07T16:15:36.249Z,74.49
2022-09-07T16:18:06.545Z,75.14
2022-09-07T16:20:36.660Z,75.47
2022-09-07T16:23:15.297Z,75.69
2022-09-07T16:25:37.057Z,76.58
2022-09-07T16:28:07.356Z,76.96
2022-09-07T16:30:37.449Z,77.00
2022-09-07T16:33:07.787Z,77.20
2022-09-07T16:35:37.849Z,77.41
2022-09-07T16:40:38.249Z,77.72
2022-09-07T16:43:09.735Z,77.75
2022-09-07T16:46:03.645Z,77.88
2022-09-07T16:48:08.828Z,78.47
2022-09-07T16:50:39.032Z,78.58
2022-09-07T16:53:09.241Z,78.59
2022-09-07T16:55:39.973Z,78.46
2022-09-07T16:58:36.178Z,78.49
2022-09-07T17:00:41.262Z,78.51
2022-09-07T17:03:11.454Z,78.47
2022-09-07T17:05:41.603Z,78.52
2022-09-07T17:08:11.848Z,78.57
2022-09-07T17:10:41.992Z,78.69
2022-09-07T17:13:12.221Z,79.20
2022-09-07T17:15:42.374Z,79.36
2022-09-07T17:18:12.714Z,79.26
2022-09-07T17:20:42.908Z,79.75
2022-09-07T17:23:13.023Z,79.77
2022-09-07T17:25:43.181Z,79.80
2022-09-07T17:28:15.267Z,80.09
2022-09-07T17:30:43.564Z,79.80
2022-09-07T17:33:13.874Z,79.60
2022-09-07T17:35:44.079Z,79.51
2022-09-07T17:40:44.371Z,79.58
2022-09-07T17:43:45.217Z,80.03
2022-09-07T17:45:44.806Z,80.21
2022-09-07T17:48:14.989Z,80.20
2022-09-07T17:50:45.199Z,80.72
2022-09-07T17:53:15.432Z,80.56
2022-09-07T17:55:45.592Z,80.54
2022-09-07T17:58:15.834Z,81.04
2022-09-07T18:00:46.143Z,81.11
2022-09-07T18:03:16.268Z,81.05
2022-09-07T18:05:46.488Z,81.22
2022-09-07T18:08:16.694Z,81.69
2022-09-07T18:13:18.086Z,81.91
2022-09-07T18:15:47.307Z,81.92
2022-09-07T18:18:17.644Z,82.38
2022-09-07T18:20:47.777Z,82.48
2022-09-07T18:23:18.006Z,82.54
2022-09-07T18:25:48.194Z,82.98
2022-09-07T18:30:48.644Z,82.93
2022-09-07T18:33:18.988Z,83.30
2022-09-07T18:35:49.121Z,83.27
2022-09-07T18:38:20.440Z,83.56
2022-09-07T18:40:51.130Z,83.48
2022-09-07T18:43:20.996Z,83.62
2022-09-07T18:45:51.222Z,83.52
2022-09-07T18:48:22.009Z,83.58
2022-09-07T18:50:52.264Z,84.21
2022-09-07T18:53:22.480Z,84.02
2022-09-07T18:55:53.253Z,84.10
2022-09-07T18:58:24.388Z,84.43
2022-09-07T19:00:53.816Z,84.54
2022-09-07T19:03:23.998Z,84.85
2022-09-07T19:05:54.241Z,84.71
2022-09-07T19:08:24.477Z,85.03
2022-09-07T19:10:54.700Z,85.12
2022-09-07T19:13:25.539Z,85.10
2022-09-07T19:15:55.813Z,84.97
2022-09-07T19:18:26.145Z,85.13
2022-09-07T19:20:56.835Z,84.97
2022-09-07T19:23:27.390Z,85.13
2022-09-07T19:25:58.206Z,85.42
2022-09-07T19:28:28.379Z,85.41
2022-09-07T19:30:58.957Z,85.67
2022-09-07T19:33:29.173Z,85.58
2022-09-07T19:35:59.642Z,86.01
2022-09-07T19:38:30.452Z,86.15
2022-09-07T19:41:01.277Z,86.13
2022-09-07T19:43:31.743Z,86.18
2022-09-07T19:46:02.250Z,85.90
2022-09-07T19:48:32.449Z,86.01
2022-09-07T19:51:03.004Z,86.01
2022-09-07T19:53:33.635Z,85.94
2022-09-07T19:56:03.732Z,85.70
2022-09-07T19:58:34.558Z,85.56
2022-09-07T20:01:04.889Z,85.45
2022-09-07T20:03:35.518Z,85.41
2022-09-07T20:06:05.718Z,85.02
2022-09-07T20:08:36.083Z,84.77
2022-09-07T20:11:06.205Z,84.80
2022-09-07T20:13:36.549Z,84.66
2022-09-07T20:16:07.446Z,84.73
2022-09-07T20:18:37.554Z,84.79
2022-09-07T20:21:08.360Z,85.02
2022-09-07T20:23:39.259Z,85.03
2022-09-07T20:26:09.486Z,84.96
2022-09-07T20:28:40.308Z,84.81
2022-09-07T20:31:10.293Z,85.05
2022-09-07T20:33:40.764Z,84.92
2022-09-07T20:36:11.441Z,84.91
2022-09-07T20:38:42.284Z,85.11
2022-09-07T20:41:12.768Z,85.04
2022-09-07T20:43:43.194Z,85.32
2022-09-07T20:46:13.105Z,85.32
2022-09-07T20:48:43.138Z,85.49
2022-09-07T20:51:16.059Z,85.38
2022-09-07T20:53:44.869Z,85.49
2022-09-07T20:56:15.700Z,85.45
2022-09-07T20:58:46.041Z,85.55
2022-09-07T21:01:16.993Z,85.56
2022-09-07T21:03:49.258Z,85.62
2022-09-07T21:06:17.251Z,85.68
2022-09-07T21:08:47.253Z,85.79
2022-09-07T21:11:18.109Z,85.73
2022-09-07T21:13:48.297Z,85.77
2022-09-07T21:16:18.455Z,85.97
2022-09-07T21:18:48.714Z,86.12
2022-09-07T21:21:20.407Z,86.11
2022-09-07T21:23:48.826Z,86.13
2022-09-07T21:26:19.545Z,86.08
2022-09-07T21:28:50.229Z,86.13
2022-09-07T21:31:20.760Z,86.08
2022-09-07T21:33:51.404Z,86.29
2022-09-07T21:36:21.712Z,86.38
2022-09-07T21:38:52.384Z,86.29
2022-09-07T21:41:23.031Z,86.26
2022-09-07T21:43:53.128Z,86.23
2022-09-07T21:46:23.793Z,86.33
2022-09-07T21:48:54.518Z,86.32
2022-09-07T21:51:24.734Z,86.36
2022-09-07T21:53:55.115Z,86.36
2022-09-07T21:56:25.170Z,86.37
2022-09-07T21:58:56.096Z,86.42
2022-09-07T22:01:27.045Z,86.65
2022-09-07T22:03:57.380Z,86.66
2022-09-07T22:06:27.488Z,86.64
2022-09-07T22:08:57.927Z,86.72
2022-09-07T22:11:28.144Z,86.86
2022-09-07T22:13:58.264Z,86.89
2022-09-07T22:16:28.509Z,86.78
2022-09-07T22:18:58.874Z,86.85
2022-09-07T22:21:28.975Z,87.06
2022-09-07T22:23:59.391Z,87.35
2022-09-07T22:26:29.743Z,87.37
2022-09-07T22:28:59.859Z,87.31
2022-09-07T22:31:30.696Z,87.45
2022-09-07T22:34:01.381Z,87.48
2022-09-07T22:36:31.441Z,87.39
2022-09-07T22:39:02.115Z,87.44
2022-09-07T22:41:32.450Z,87.60
2022-09-07T22:44:03.283Z,87.55
2022-09-07T22:46:33.240Z,87.57
2022-09-07T22:49:04.077Z,87.51
2022-09-07T22:51:34.654Z,87.67
2022-09-07T22:54:05.211Z,87.67
2022-09-07T22:56:35.216Z,87.79
2022-09-07T22:59:05.725Z,87.82
2022-09-07T23:01:35.893Z,87.90
2022-09-07T23:04:06.309Z,87.97
2022-09-07T23:06:36.661Z,87.98
2022-09-07T23:09:07.125Z,87.89
2022-09-07T23:11:37.370Z,87.96
2022-09-07T23:14:07.979Z,87.91
2022-09-07T23:16:38.873Z,87.98
2022-09-07T23:19:09.021Z,88.03
2022-09-07T23:21:39.287Z,88.03
2022-09-07T23:24:09.728Z,88.08
2022-09-07T23:26:40.319Z,88.14
2022-09-07T23:29:11.059Z,87.91
2022-09-07T23:31:41.077Z,87.84
2022-09-07T23:34:11.731Z,87.88
2022-09-07T23:36:41.748Z,88.10
2022-09-07T23:39:12.163Z,87.88
2022-09-07T23:41:42.507Z,87.83
2022-09-07T23:44:13.211Z,87.88
2022-09-07T23:46:43.903Z,87.98
2022-09-07T23:49:14.084Z,88.05
2022-09-07T23:51:44.154Z,88.33
2022-09-07T23:54:14.818Z,88.33
2022-09-07T23:56:45.064Z,88.45
2022-09-07T23:59:15.104Z,88.62
